createdAt,value
2023-05-19T00:00:24.671Z,72.14
2023-05-19T00:01:24.705Z,72.03
2023-05-19T00:02:24.821Z,71.93
2023-05-19T00:03:24.817Z,71.93
2023-05-19T00:04:24.756Z,72.03
2023-05-19T00:05:24.803Z,71.93
2023-05-19T00:06:24.831Z,71.49
2023-05-19T00:07:24.885Z,71.59
2023-05-19T00:21:18.475Z,71.18
2023-05-19T00:22:18.513Z,71.25
2023-05-19T00:23:18.551Z,71.59
2023-05-19T00:24:18.591Z,71.59
2023-05-19T00:25:18.645Z,71.90
2023-05-19T00:26:18.671Z,71.69
2023-05-19T00:27:18.724Z,71.49
2023-05-19T00:28:18.737Z,71.69
2023-05-19T00:29:18.783Z,71.69
2023-05-19T00:30:18.854Z,71.69
2023-05-19T00:31:18.829Z,71.59
2023-05-19T00:32:18.862Z,71.59
2023-05-19T00:33:18.850Z,71.69
2023-05-19T00:34:18.883Z,71.69
2023-05-19T00:35:18.948Z,71.80
2023-05-19T00:36:18.982Z,71.80
2023-05-19T00:37:19.008Z,71.28
2023-05-19T00:38:19.041Z,71.49
2023-05-19T00:39:19.080Z,71.49
2023-05-19T00:40:19.125Z,71.39
2023-05-19T00:41:19.188Z,71.08
2023-05-19T00:42:19.214Z,71.08
2023-05-19T00:43:19.245Z,70.87
2023-05-19T00:44:19.262Z,70.98
2023-05-19T00:45:19.288Z,71.08
2023-05-19T00:46:19.379Z,71.22
2023-05-19T00:47:19.309Z,71.52
2023-05-19T00:48:19.338Z,71.39
2023-05-19T00:49:19.416Z,71.11
2023-05-19T00:50:19.482Z,71.01
2023-05-19T00:51:19.458Z,71.11
2023-05-19T00:52:19.489Z,71.32
2023-05-19T00:53:19.521Z,71.62
2023-05-19T00:54:19.575Z,72.03
2023-05-19T00:55:19.613Z,72.14
2023-05-19T00:56:19.644Z,72.14
2023-05-19T00:57:19.695Z,72.34
2023-05-19T00:58:19.749Z,72.14
2023-05-19T00:59:19.786Z,72.24
2023-05-19T01:00:19.820Z,72.34
2023-05-19T01:01:19.896Z,72.14
2023-05-19T01:02:19.944Z,72.14
2023-05-19T01:03:20.056Z,72.34
2023-05-19T01:04:20.028Z,72.75
2023-05-19T01:05:20.079Z,72.55
2023-05-19T01:06:20.134Z,72.34
2023-05-19T01:07:20.181Z,72.34
2023-05-19T01:08:20.211Z,72.55
2023-05-19T01:09:20.251Z,72.44
2023-05-19T01:10:20.274Z,72.65
2023-05-19T01:11:20.340Z,72.44
2023-05-19T01:12:20.376Z,72.24
2023-05-19T01:13:20.401Z,72.44
2023-05-19T01:14:20.436Z,72.44
2023-05-19T01:15:20.464Z,72.55
2023-05-19T01:16:20.540Z,72.65
2023-05-19T01:17:20.540Z,72.55
2023-05-19T01:18:20.587Z,72.55
2023-05-19T01:19:20.696Z,72.44
2023-05-19T01:20:20.662Z,72.03
2023-05-19T01:21:20.710Z,72.14
2023-05-19T01:22:20.810Z,72.03
2023-05-19T01:23:20.813Z,72.78
2023-05-19T01:24:20.843Z,72.89
2023-05-19T01:25:20.855Z,73.30
2023-05-19T01:26:20.897Z,73.40
2023-05-19T01:27:20.910Z,73.40
2023-05-19T01:28:20.874Z,73.40
2023-05-19T01:29:20.894Z,73.40
2023-05-19T01:30:20.876Z,73.19
2023-05-19T01:31:20.967Z,73.50
2023-05-19T01:32:20.957Z,73.71
2023-05-19T01:33:20.975Z,73.61
2023-05-19T01:34:20.975Z,73.85
2023-05-19T01:35:21.038Z,74.05
2023-05-19T01:36:21.021Z,74.46
2023-05-19T01:37:21.104Z,74.36
2023-05-19T01:38:21.115Z,74.26
2023-05-19T01:39:21.097Z,74.46
2023-05-19T01:40:21.094Z,74.36
2023-05-19T01:41:21.157Z,74.66
2023-05-19T01:42:21.158Z,74.46
2023-05-19T01:43:21.205Z,75.11
2023-05-19T01:44:21.271Z,75.11
2023-05-19T01:45:21.266Z,75.11
2023-05-19T01:46:21.323Z,75.21
2023-05-19T01:47:21.263Z,75.11
2023-05-19T01:48:21.250Z,75.21
2023-05-19T01:49:21.306Z,75.21
2023-05-19T01:50:22.302Z,74.91
2023-05-19T01:51:21.379Z,75.52
2023-05-19T01:52:21.381Z,75.66
2023-05-19T01:53:21.344Z,75.93
2023-05-19T01:54:21.430Z,75.52
2023-05-19T01:55:21.404Z,75.87
2023-05-19T01:56:21.469Z,75.97
2023-05-19T01:57:21.458Z,76.07
2023-05-19T01:58:21.515Z,76.38
2023-05-19T01:59:21.583Z,76.17
2023-05-19T02:00:21.682Z,76.42
2023-05-19T02:01:21.728Z,76.93
2023-05-19T02:02:21.742Z,77.03
2023-05-19T02:03:21.734Z,77.06
2023-05-19T02:04:21.819Z,77.17
2023-05-19T02:05:21.691Z,77.37
2023-05-19T02:06:21.767Z,77.48
2023-05-19T02:07:21.783Z,77.48
2023-05-19T02:08:21.749Z,77.06
2023-05-19T02:09:21.818Z,76.82
2023-05-19T02:10:21.875Z,76.72
2023-05-19T02:11:21.941Z,76.62
2023-05-19T02:12:21.998Z,76.72
2023-05-19T02:13:22.066Z,76.62
2023-05-19T02:14:22.180Z,76.51
2023-05-19T02:15:22.154Z,76.72
2023-05-19T02:16:22.201Z,76.72
2023-05-19T02:17:22.224Z,76.42
2023-05-19T02:18:22.184Z,76.42
2023-05-19T02:19:22.396Z,76.93
2023-05-19T02:20:22.345Z,76.21
2023-05-19T02:21:22.318Z,76.21
2023-05-19T02:22:22.384Z,76.10
2023-05-19T02:23:22.365Z,75.90
2023-05-19T02:24:22.440Z,76.31
2023-05-19T02:25:22.518Z,76.10
2023-05-19T02:26:22.535Z,76.10
2023-05-19T02:27:22.507Z,76.00
2023-05-19T02:28:22.581Z,76.10
2023-05-19T02:29:22.562Z,76.21
2023-05-19T02:30:22.658Z,76.00
2023-05-19T02:31:22.685Z,76.25
2023-05-19T02:32:22.645Z,76.97
2023-05-19T02:33:22.630Z,77.27
2023-05-19T02:34:22.685Z,77.48
2023-05-19T02:35:22.752Z,77.23
2023-05-19T02:36:22.837Z,76.62
2023-05-19T02:37:22.840Z,76.51
2023-05-19T02:38:22.818Z,76.21
2023-05-19T02:39:22.884Z,75.76
2023-05-19T02:40:22.960Z,75.35
2023-05-19T02:41:22.940Z,75.04
2023-05-19T02:42:23.019Z,74.94
2023-05-19T02:43:23.012Z,74.94
2023-05-19T02:44:22.995Z,74.94
2023-05-19T02:45:23.044Z,74.94
2023-05-19T02:46:23.124Z,75.04
2023-05-19T02:47:23.249Z,75.38
2023-05-19T02:48:23.272Z,75.18
2023-05-19T02:49:23.248Z,75.38
2023-05-19T02:50:23.298Z,75.29
2023-05-19T02:51:23.362Z,75.49
2023-05-19T02:52:23.441Z,75.38
2023-05-19T02:53:23.431Z,75.49
2023-05-19T02:54:23.427Z,75.32
2023-05-19T02:55:23.445Z,76.04
2023-05-19T02:56:23.451Z,76.69
2023-05-19T02:57:23.428Z,77.31
2023-05-19T02:58:23.440Z,78.06
2023-05-19T02:59:25.477Z,78.27
2023-05-19T03:00:23.435Z,78.47
2023-05-19T03:01:23.506Z,78.37
2023-05-19T03:02:23.449Z,78.58
2023-05-19T03:03:23.648Z,78.68
2023-05-19T03:04:23.501Z,78.37
2023-05-19T03:05:23.522Z,77.86
2023-05-19T03:06:23.580Z,77.96
2023-05-19T03:07:23.580Z,78.20
2023-05-19T03:08:23.586Z,78.20
2023-05-19T03:09:23.606Z,78.92
2023-05-19T03:10:23.632Z,79.27
2023-05-19T03:11:23.628Z,79.95
2023-05-19T03:12:23.638Z,79.75
2023-05-19T03:13:23.656Z,79.75
2023-05-19T03:14:23.665Z,79.85
2023-05-19T03:15:23.709Z,79.85
2023-05-19T03:16:23.772Z,79.13
2023-05-19T03:17:23.826Z,79.44
2023-05-19T03:18:23.859Z,79.44
2023-05-19T03:19:23.870Z,79.85
2023-05-19T03:20:23.835Z,79.64
2023-05-19T03:21:23.856Z,79.44
2023-05-19T03:22:23.849Z,79.23
2023-05-19T03:23:23.871Z,79.03
2023-05-19T03:24:23.855Z,79.13
2023-05-19T03:25:23.906Z,79.03
2023-05-19T03:26:23.905Z,78.44
2023-05-19T03:27:23.956Z,79.06
2023-05-19T03:28:23.970Z,79.16
2023-05-19T03:29:23.982Z,79.68
2023-05-19T03:30:23.991Z,78.86
2023-05-19T03:31:24.029Z,78.96
2023-05-19T03:32:24.148Z,79.16
2023-05-19T03:33:24.229Z,80.85
2023-05-19T03:34:24.070Z,80.91
2023-05-19T03:35:24.062Z,80.30
2023-05-19T03:36:24.203Z,80.51
2023-05-19T03:37:24.135Z,80.91
2023-05-19T03:38:24.144Z,80.51
2023-05-19T03:39:24.194Z,79.88
2023-05-19T03:40:24.236Z,79.79
2023-05-19T03:41:24.273Z,79.79
2023-05-19T03:42:24.276Z,80.30
2023-05-19T03:43:24.366Z,80.51
2023-05-19T03:44:24.406Z,81.63
2023-05-19T03:45:24.428Z,81.43
2023-05-19T03:46:24.515Z,81.74
2023-05-19T03:47:24.546Z,82.05
2023-05-19T03:48:24.541Z,81.49
2023-05-19T03:49:24.544Z,80.88
2023-05-19T03:50:24.571Z,80.36
2023-05-19T03:51:24.643Z,79.37
2023-05-19T03:52:24.708Z,79.47
2023-05-19T03:53:24.760Z,79.88
2023-05-19T03:54:24.797Z,80.09
2023-05-19T03:55:24.846Z,80.30
2023-05-19T03:56:24.920Z,80.19
2023-05-19T03:57:24.932Z,80.16
2023-05-19T03:58:24.972Z,80.16
2023-05-19T03:59:24.960Z,79.95
2023-05-19T04:00:25.061Z,80.16
2023-05-19T04:01:25.061Z,79.75
2023-05-19T04:02:25.269Z,79.64
2023-05-19T04:03:25.234Z,78.96
2023-05-19T04:04:25.348Z,79.68
2023-05-19T04:05:25.306Z,79.85
2023-05-19T04:06:25.383Z,80.16
2023-05-19T04:07:25.428Z,80.36
2023-05-19T04:08:25.404Z,80.57
2023-05-19T04:09:25.758Z,80.36
2023-05-19T04:10:25.407Z,80.22
2023-05-19T04:11:25.506Z,80.33
2023-05-19T04:12:25.512Z,80.43
2023-05-19T04:13:25.518Z,80.33
2023-05-19T04:14:25.497Z,80.29
2023-05-19T04:15:25.520Z,79.98
2023-05-19T04:16:25.589Z,79.88
2023-05-19T04:17:25.597Z,79.67
2023-05-19T04:18:28.249Z,79.36
2023-05-19T04:19:25.663Z,79.12
2023-05-19T04:20:25.699Z,78.71
2023-05-19T04:21:25.690Z,78.50
2023-05-19T04:22:25.668Z,78.40
2023-05-19T04:23:25.726Z,78.61
2023-05-19T04:24:25.726Z,78.50
2023-05-19T04:25:25.725Z,78.20
2023-05-19T04:26:25.789Z,78.57
2023-05-19T04:27:25.832Z,78.16
2023-05-19T04:28:25.844Z,78.36
2023-05-19T04:29:25.881Z,78.30
2023-05-19T04:30:25.870Z,78.67
2023-05-19T04:31:25.872Z,78.47
2023-05-19T04:32:25.997Z,78.27
2023-05-19T04:33:25.884Z,78.27
2023-05-19T04:34:25.913Z,78.27
2023-05-19T04:35:25.961Z,78.33
2023-05-19T04:36:25.969Z,78.33
2023-05-19T04:37:26.008Z,78.23
2023-05-19T04:38:25.984Z,78.12
2023-05-19T04:39:25.999Z,77.98
2023-05-19T04:40:26.072Z,77.47
2023-05-19T04:41:26.075Z,77.47
2023-05-19T04:42:26.130Z,77.13
2023-05-19T04:43:26.160Z,77.13
2023-05-19T04:44:26.195Z,77.13
2023-05-19T04:45:26.172Z,77.13
2023-05-19T04:46:26.273Z,76.68
2023-05-19T04:47:26.309Z,75.86
2023-05-19T04:48:26.235Z,75.56
2023-05-19T04:49:26.279Z,75.21
2023-05-19T04:50:26.269Z,75.21
2023-05-19T04:51:26.328Z,75.31
2023-05-19T04:52:26.398Z,74.97
2023-05-19T04:53:26.421Z,74.46
2023-05-19T04:54:26.513Z,73.81
2023-05-19T04:55:26.530Z,73.30
2023-05-19T04:56:26.660Z,73.61
2023-05-19T04:57:26.723Z,73.61
2023-05-19T04:58:26.579Z,73.40
2023-05-19T04:59:26.646Z,73.10
2023-05-19T05:00:26.691Z,73.47
2023-05-19T05:01:26.864Z,72.96
2023-05-19T05:02:26.758Z,72.72
2023-05-19T05:03:26.936Z,72.11
2023-05-19T05:04:26.947Z,72.11
2023-05-19T05:05:26.958Z,72.14
2023-05-19T05:06:26.884Z,72.11
2023-05-19T05:07:26.933Z,72.00
2023-05-19T05:08:26.875Z,71.36
2023-05-19T05:09:26.913Z,71.15
2023-05-19T05:10:26.889Z,71.42
2023-05-19T05:11:27.030Z,71.01
2023-05-19T05:12:27.002Z,70.40
2023-05-19T05:13:26.999Z,70.37
2023-05-19T05:14:27.054Z,70.27
2023-05-19T05:15:27.049Z,69.73
2023-05-19T05:16:27.251Z,69.42
2023-05-19T05:17:27.205Z,69.21
2023-05-19T05:18:27.144Z,69.42
2023-05-19T05:19:27.279Z,68.88
2023-05-19T05:20:27.143Z,68.47
2023-05-19T05:21:27.186Z,68.37
2023-05-19T05:22:27.246Z,68.13
2023-05-19T05:23:27.245Z,67.82
2023-05-19T05:24:27.316Z,67.18
2023-05-19T05:25:27.320Z,67.38
2023-05-19T05:26:27.394Z,66.97
2023-05-19T05:27:27.399Z,66.94
2023-05-19T05:28:27.416Z,65.97
2023-05-19T05:29:27.427Z,64.18
2023-05-19T05:30:27.620Z,62.59
2023-05-19T05:31:27.464Z,61.49
2023-05-19T05:32:27.533Z,59.58
2023-05-19T05:33:27.659Z,57.98
2023-05-19T05:34:27.480Z,56.07
2023-05-19T05:35:27.554Z,54.71
2023-05-19T05:36:27.591Z,53.45
2023-05-19T05:37:27.620Z,52.51
2023-05-19T05:38:27.808Z,51.28
2023-05-19T05:39:27.647Z,50.33
2023-05-19T05:40:27.682Z,49.70
2023-05-19T05:41:27.693Z,49.07
2023-05-19T05:42:29.702Z,48.49
2023-05-19T05:43:27.762Z,49.22
2023-05-19T05:44:27.768Z,48.90
2023-05-19T05:45:27.810Z,48.92
2023-05-19T05:46:27.954Z,49.87
2023-05-19T05:47:27.897Z,50.50
2023-05-19T05:48:27.890Z,50.48
2023-05-19T05:49:27.909Z,50.37
2023-05-19T05:50:27.938Z,50.60
2023-05-19T05:51:27.962Z,50.17
2023-05-19T05:52:27.979Z,49.65
2023-05-19T05:53:28.000Z,49.35
2023-05-19T05:54:28.042Z,49.35
2023-05-19T05:55:28.043Z,48.92
2023-05-19T05:56:28.094Z,48.82
2023-05-19T05:57:28.126Z,48.92
2023-05-19T05:58:28.188Z,48.72
2023-05-19T05:59:28.252Z,49.19
2023-05-19T06:00:28.296Z,49.32
2023-05-19T06:01:28.285Z,49.22
2023-05-19T06:02:28.407Z,49.02
2023-05-19T06:03:28.397Z,49.62
2023-05-19T06:04:28.331Z,49.75
2023-05-19T06:05:28.433Z,50.90
2023-05-19T06:06:28.401Z,51.53
2023-05-19T06:07:28.434Z,52.26
2023-05-19T06:08:28.515Z,52.67
2023-05-19T06:09:28.487Z,52.97
2023-05-19T06:10:28.504Z,52.09
2023-05-19T06:11:28.535Z,50.56
2023-05-19T06:12:28.549Z,50.20
2023-05-19T06:13:28.570Z,49.57
2023-05-19T06:14:28.586Z,48.35
2023-05-19T06:15:28.609Z,48.25
2023-05-19T06:16:28.662Z,47.58
2023-05-19T06:17:28.712Z,46.53
2023-05-19T06:18:28.695Z,46.25
2023-05-19T06:19:28.828Z,46.04
2023-05-19T06:20:28.744Z,46.23
2023-05-19T06:21:28.738Z,46.27
2023-05-19T06:22:28.787Z,47.14
2023-05-19T06:23:28.829Z,48.22
2023-05-19T06:24:28.835Z,48.22
2023-05-19T06:25:28.864Z,48.08
2023-05-19T06:26:28.913Z,47.38
2023-05-19T06:27:28.940Z,48.63
2023-05-19T06:28:28.961Z,47.97
2023-05-19T06:29:29.008Z,47.05
2023-05-19T06:30:29.058Z,47.96
2023-05-19T06:31:29.126Z,46.57
2023-05-19T06:32:29.127Z,47.15
2023-05-19T06:33:29.434Z,47.05
2023-05-19T06:34:29.119Z,46.68
2023-05-19T06:35:29.159Z,45.21
2023-05-19T06:36:29.202Z,44.07
2023-05-19T06:37:29.217Z,43.65
2023-05-19T06:38:29.200Z,43.67
2023-05-19T06:39:29.281Z,43.19
2023-05-19T06:40:29.421Z,45.18
2023-05-19T06:41:29.365Z,46.75
2023-05-19T06:42:29.390Z,47.13
2023-05-19T06:43:29.405Z,46.98
2023-05-19T06:44:29.422Z,45.51
2023-05-19T06:45:29.453Z,43.35
2023-05-19T06:46:29.498Z,43.43
2023-05-19T06:47:29.597Z,42.40
2023-05-19T06:48:29.579Z,42.19
2023-05-19T06:49:29.578Z,42.29
2023-05-19T06:50:29.626Z,41.97
2023-05-19T06:51:29.628Z,41.46
2023-05-19T06:52:29.642Z,40.86
2023-05-19T06:53:29.667Z,42.21
2023-05-19T06:54:29.717Z,42.69
2023-05-19T06:55:29.729Z,43.91
2023-05-19T06:56:29.773Z,44.66
2023-05-19T06:57:29.807Z,46.42
2023-05-19T06:58:29.812Z,45.78
2023-05-19T06:59:29.839Z,45.34
2023-05-19T07:00:29.836Z,44.79
2023-05-19T07:01:29.900Z,45.04
2023-05-19T07:02:30.048Z,45.50
2023-05-19T07:03:30.056Z,43.48
2023-05-19T07:04:29.957Z,43.77
2023-05-19T07:05:29.976Z,44.09
2023-05-19T07:06:30.026Z,43.87
2023-05-19T07:07:30.057Z,43.13
2023-05-19T07:08:30.103Z,42.37
2023-05-19T07:09:30.109Z,41.25
2023-05-19T07:10:30.218Z,41.42
2023-05-19T07:11:30.196Z,40.82
2023-05-19T07:12:30.233Z,40.38
2023-05-19T07:13:30.246Z,40.10
2023-05-19T07:14:30.245Z,40.10
2023-05-19T07:15:30.261Z,39.69
2023-05-19T07:16:30.318Z,39.76
2023-05-19T07:17:30.368Z,40.14
2023-05-19T07:18:30.376Z,39.23
2023-05-19T07:19:30.484Z,38.52
2023-05-19T07:20:30.667Z,38.10
2023-05-19T07:21:30.475Z,38.09
2023-05-19T07:22:30.480Z,38.83
2023-05-19T07:23:30.507Z,40.32
2023-05-19T07:24:30.593Z,42.40
2023-05-19T07:25:30.572Z,43.51
2023-05-19T07:26:30.578Z,42.45
2023-05-19T07:27:30.606Z,41.79
2023-05-19T07:28:30.695Z,41.28
2023-05-19T07:29:30.693Z,41.20
2023-05-19T07:30:30.923Z,40.68
2023-05-19T07:31:30.776Z,41.31
2023-05-19T07:32:30.857Z,41.71
2023-05-19T07:33:30.853Z,40.90
2023-05-19T07:34:30.869Z,41.02
2023-05-19T07:35:30.898Z,41.30
2023-05-19T07:36:30.912Z,40.86
2023-05-19T07:37:30.941Z,40.12
2023-05-19T07:38:30.956Z,39.29
2023-05-19T07:39:30.978Z,38.64
2023-05-19T07:40:31.238Z,36.96
2023-05-19T07:41:31.055Z,36.16
2023-05-19T07:42:31.060Z,35.82
2023-05-19T07:43:31.105Z,36.65
2023-05-19T07:44:31.101Z,37.26
2023-05-19T07:45:31.151Z,36.85
2023-05-19T07:46:31.224Z,36.65
2023-05-19T07:47:31.297Z,36.11
2023-05-19T07:48:31.208Z,35.98
2023-05-19T07:49:31.226Z,35.97
2023-05-19T07:50:31.418Z,35.47
2023-05-19T07:51:31.258Z,36.10
2023-05-19T07:52:31.274Z,37.01
2023-05-19T07:53:31.289Z,36.22
2023-05-19T07:54:31.297Z,36.40
2023-05-19T07:55:31.315Z,37.21
2023-05-19T07:56:31.364Z,37.30
2023-05-19T07:57:31.366Z,36.79
2023-05-19T07:58:31.434Z,37.34
2023-05-19T07:59:31.428Z,37.92
2023-05-19T08:00:31.676Z,37.09
2023-05-19T08:01:31.517Z,36.48
2023-05-19T08:02:31.638Z,36.46
2023-05-19T08:03:31.693Z,37.28
2023-05-19T08:04:31.609Z,37.54
2023-05-19T08:05:31.576Z,38.06
2023-05-19T08:06:31.610Z,36.91
2023-05-19T08:07:31.624Z,36.18
2023-05-19T08:08:31.602Z,35.82
2023-05-19T08:09:31.629Z,36.41
2023-05-19T08:10:31.874Z,37.46
2023-05-19T08:11:31.673Z,36.61
2023-05-19T08:12:31.718Z,36.99
2023-05-19T08:13:31.740Z,36.43
2023-05-19T08:14:31.769Z,37.64
2023-05-19T08:15:31.839Z,36.93
2023-05-19T08:16:31.890Z,37.19
2023-05-19T08:17:31.900Z,36.61
2023-05-19T08:18:31.875Z,37.62
2023-05-19T08:19:31.900Z,36.30
2023-05-19T08:20:32.060Z,36.20
2023-05-19T08:21:31.959Z,36.63
2023-05-19T08:22:31.989Z,37.04
2023-05-19T08:23:32.049Z,37.13
2023-05-19T08:24:32.077Z,36.83
2023-05-19T08:25:32.103Z,36.23
2023-05-19T08:26:32.114Z,36.43
2023-05-19T08:27:32.181Z,37.56
2023-05-19T08:28:32.202Z,37.24
2023-05-19T08:29:32.200Z,36.23
2023-05-19T08:30:32.375Z,35.83
2023-05-19T08:31:32.336Z,35.49
2023-05-19T08:32:32.417Z,35.01
2023-05-19T08:33:32.435Z,36.00
2023-05-19T08:34:32.453Z,35.47
2023-05-19T08:35:32.479Z,34.71
2023-05-19T08:36:32.483Z,36.02
2023-05-19T08:37:34.100Z,36.07
2023-05-19T08:38:32.538Z,37.08
2023-05-19T08:39:32.525Z,37.88
2023-05-19T08:40:32.789Z,37.87
2023-05-19T08:41:32.568Z,37.60
2023-05-19T08:42:32.592Z,36.73
2023-05-19T08:43:32.647Z,35.98
2023-05-19T08:44:32.667Z,35.17
2023-05-19T08:45:32.893Z,34.12
2023-05-19T08:46:32.751Z,34.17
2023-05-19T08:47:32.746Z,35.06
2023-05-19T08:48:32.752Z,36.30
2023-05-19T08:49:32.763Z,36.57
2023-05-19T08:50:33.088Z,35.31
2023-05-19T08:51:32.813Z,35.50
2023-05-19T08:52:32.794Z,35.22
2023-05-19T08:53:34.528Z,35.95
2023-05-19T08:54:32.799Z,37.63
2023-05-19T08:55:33.111Z,37.90
2023-05-19T08:56:32.920Z,37.54
2023-05-19T08:57:32.970Z,36.11
2023-05-19T08:58:32.962Z,35.27
2023-05-19T08:59:32.996Z,35.31
2023-05-19T09:00:33.309Z,36.02
2023-05-19T09:01:33.145Z,35.88
2023-05-19T09:02:33.149Z,35.60
2023-05-19T09:03:33.286Z,35.90
2023-05-19T09:04:33.318Z,35.67
2023-05-19T09:05:33.558Z,35.35
2023-05-19T09:06:33.211Z,35.78
2023-05-19T09:07:33.231Z,35.86
2023-05-19T09:08:33.297Z,35.46
2023-05-19T09:09:33.371Z,35.65
2023-05-19T09:10:33.360Z,35.11
2023-05-19T09:11:33.379Z,35.14
2023-05-19T09:12:33.425Z,35.50
2023-05-19T09:13:33.466Z,34.18
2023-05-19T09:14:33.521Z,35.32
2023-05-19T09:15:33.877Z,35.25
2023-05-19T09:16:33.577Z,35.77
2023-05-19T09:17:33.712Z,35.75
2023-05-19T09:18:33.649Z,36.08
2023-05-19T09:19:33.732Z,36.93
2023-05-19T09:20:33.655Z,37.59
2023-05-19T09:21:33.765Z,37.09
2023-05-19T09:22:33.738Z,36.71
2023-05-19T09:23:33.691Z,37.01
2023-05-19T09:24:34.413Z,36.69
2023-05-19T09:25:33.871Z,37.56
2023-05-19T09:26:33.734Z,39.76
2023-05-19T09:27:33.726Z,39.74
2023-05-19T09:32:51.709Z,37.46
2023-05-19T09:33:51.778Z,38.61
2023-05-19T09:34:51.744Z,39.32
2023-05-19T09:35:51.734Z,39.88
2023-05-19T09:36:51.812Z,40.18
2023-05-19T09:37:51.791Z,40.81
2023-05-19T09:38:51.844Z,41.41
2023-05-19T09:39:51.834Z,41.31
2023-05-19T09:40:51.846Z,40.81
2023-05-19T09:41:51.886Z,40.50
2023-05-19T09:42:51.914Z,40.92
2023-05-19T09:43:52.001Z,41.02
2023-05-19T09:44:52.039Z,41.55
2023-05-19T09:45:52.075Z,42.38
2023-05-19T09:46:52.077Z,42.79
2023-05-19T09:47:52.133Z,42.35
2023-05-19T09:48:52.149Z,40.81
2023-05-19T09:49:52.155Z,40.08
2023-05-19T09:50:52.212Z,39.82
2023-05-19T09:51:52.226Z,41.17
2023-05-19T09:52:52.263Z,41.99
2023-05-19T09:53:52.271Z,41.19
2023-05-19T09:54:52.307Z,39.40
2023-05-19T09:55:52.361Z,40.34
2023-05-19T09:56:52.386Z,40.28
2023-05-19T09:57:52.382Z,40.10
2023-05-19T09:58:52.448Z,38.63
2023-05-19T09:59:52.507Z,37.20
2023-05-19T10:00:52.517Z,38.96
2023-05-19T10:01:52.621Z,39.84
2023-05-19T10:02:52.605Z,40.95
2023-05-19T10:03:52.567Z,40.38
2023-05-19T10:04:52.598Z,38.45
2023-05-19T10:05:52.611Z,40.10
2023-05-19T10:06:52.648Z,40.10
2023-05-19T10:07:52.711Z,39.34
2023-05-19T10:08:52.744Z,39.50
2023-05-19T10:09:52.731Z,40.44
2023-05-19T10:10:52.723Z,39.36
2023-05-19T10:11:52.797Z,38.67
2023-05-19T10:12:52.798Z,39.60
2023-05-19T10:13:52.872Z,40.59
2023-05-19T10:14:52.880Z,38.81
2023-05-19T10:15:58.760Z,38.81
2023-05-19T10:16:52.947Z,38.43
2023-05-19T10:17:52.977Z,38.29
2023-05-19T10:18:53.024Z,38.01
2023-05-19T10:19:52.995Z,38.09
2023-05-19T10:20:53.017Z,38.21
2023-05-19T10:21:53.045Z,38.09
2023-05-19T10:22:53.108Z,37.28
2023-05-19T10:23:53.152Z,37.18
2023-05-19T10:24:53.217Z,37.38
2023-05-19T10:25:53.229Z,36.90
2023-05-19T10:26:53.268Z,37.70
2023-05-19T10:27:53.295Z,37.48
2023-05-19T10:28:53.345Z,36.04
2023-05-19T10:29:53.351Z,35.71
2023-05-19T10:30:53.401Z,35.72
2023-05-19T10:31:53.493Z,35.31
2023-05-19T10:32:53.517Z,33.94
2023-05-19T10:33:53.529Z,35.67
2023-05-19T10:34:53.602Z,35.13
2023-05-19T10:35:53.595Z,34.94
2023-05-19T10:36:53.609Z,33.80
2023-05-19T10:37:53.643Z,34.73
2023-05-19T10:38:53.643Z,32.90
2023-05-19T10:39:53.631Z,32.97
2023-05-19T10:40:53.661Z,31.33
2023-05-19T10:41:53.676Z,31.34
2023-05-19T10:42:53.661Z,31.33
2023-05-19T10:43:53.704Z,31.61
2023-05-19T10:44:53.723Z,31.17
2023-05-19T10:45:53.746Z,29.46
2023-05-19T10:46:55.742Z,29.74
2023-05-19T10:47:53.909Z,31.55
2023-05-19T10:48:53.885Z,32.31
2023-05-19T10:49:53.929Z,33.62
2023-05-19T10:50:53.915Z,33.65
2023-05-19T10:51:53.997Z,33.18
2023-05-19T10:52:54.003Z,31.68
2023-05-19T10:53:54.077Z,30.57
2023-05-19T10:54:54.114Z,30.02
2023-05-19T10:55:54.115Z,29.14
2023-05-19T10:56:54.118Z,31.45
2023-05-19T10:57:54.206Z,32.35
2023-05-19T10:58:54.243Z,33.07
2023-05-19T10:59:54.209Z,33.12
2023-05-19T11:00:54.255Z,32.20
2023-05-19T11:01:54.274Z,31.45
2023-05-19T11:02:54.287Z,30.55
2023-05-19T11:03:54.342Z,29.68
2023-05-19T11:04:54.314Z,30.70
2023-05-19T11:05:54.291Z,29.71
2023-05-19T11:06:54.352Z,29.95
2023-05-19T11:07:54.356Z,30.52
2023-05-19T11:08:54.361Z,29.86
2023-05-19T11:09:54.381Z,29.21
2023-05-19T11:10:54.424Z,28.79
2023-05-19T11:11:54.487Z,28.39
2023-05-19T11:12:54.489Z,28.38
2023-05-19T11:13:54.542Z,29.08
2023-05-19T11:14:54.538Z,27.67
2023-05-19T11:15:54.536Z,28.73
2023-05-19T11:16:54.573Z,28.53
2023-05-19T11:17:54.613Z,28.90
2023-05-19T11:18:54.632Z,27.89
2023-05-19T11:19:54.686Z,28.96
2023-05-19T11:20:54.694Z,29.51
2023-05-19T11:21:54.728Z,30.02
2023-05-19T11:22:54.757Z,30.33
2023-05-19T11:23:54.870Z,31.09
2023-05-19T11:24:54.789Z,30.39
2023-05-19T11:25:54.857Z,30.68
2023-05-19T11:26:54.884Z,32.11
2023-05-19T11:27:54.910Z,33.02
2023-05-19T11:28:55.049Z,32.92
2023-05-19T11:29:55.007Z,34.22
2023-05-19T11:30:55.031Z,32.46
2023-05-19T11:31:55.052Z,32.45
2023-05-19T11:32:55.044Z,31.58
2023-05-19T11:33:54.979Z,31.90
2023-05-19T11:34:55.052Z,31.99
2023-05-19T11:35:55.043Z,31.80
2023-05-19T11:36:55.027Z,31.58
2023-05-19T11:37:55.116Z,31.60
2023-05-19T11:38:55.100Z,32.11
2023-05-19T11:39:55.140Z,32.28
2023-05-19T11:40:55.186Z,31.57
2023-05-19T11:41:55.213Z,31.68
2023-05-19T11:42:55.239Z,31.88
2023-05-19T11:43:55.328Z,31.91
2023-05-19T11:44:55.315Z,32.56
2023-05-19T11:45:55.447Z,34.21
2023-05-19T11:46:55.536Z,33.35
2023-05-19T11:48:02.110Z,32.62
2023-05-19T11:48:55.435Z,31.90
2023-05-19T11:49:55.452Z,30.76
2023-05-19T11:50:55.488Z,30.74
2023-05-19T11:51:55.510Z,29.95
2023-05-19T11:52:55.524Z,30.13
2023-05-19T11:53:55.579Z,29.50
2023-05-19T11:54:55.607Z,29.78
2023-05-19T11:55:55.655Z,29.79
2023-05-19T11:56:55.657Z,29.39
2023-05-19T11:58:03.087Z,30.12
2023-05-19T11:58:55.676Z,31.17
2023-05-19T11:59:55.708Z,31.99
2023-05-19T12:00:55.812Z,33.15
2023-05-19T12:01:55.786Z,34.08
2023-05-19T12:02:55.950Z,34.08
2023-05-19T12:03:55.996Z,34.91
2023-05-19T12:04:55.900Z,34.51
2023-05-19T12:05:55.992Z,34.11
2023-05-19T12:06:55.895Z,33.70
2023-05-19T12:07:55.972Z,33.65
2023-05-19T12:08:55.994Z,32.74
2023-05-19T12:09:56.062Z,31.84
2023-05-19T12:10:56.048Z,32.71
2023-05-19T12:11:56.104Z,31.38
2023-05-19T12:12:56.174Z,30.94
2023-05-19T12:13:56.192Z,30.13
2023-05-19T12:14:56.242Z,29.71
2023-05-19T12:15:56.295Z,29.72
2023-05-19T12:16:56.325Z,29.74
2023-05-19T12:17:56.327Z,30.99
2023-05-19T12:18:56.315Z,31.05
2023-05-19T12:19:56.300Z,31.65
2023-05-19T12:20:56.343Z,31.98
2023-05-19T12:21:56.413Z,32.38
2023-05-19T12:22:56.440Z,32.82
2023-05-19T12:23:56.521Z,32.74
2023-05-19T12:24:56.535Z,33.65
2023-05-19T12:25:56.544Z,34.58
2023-05-19T12:26:56.576Z,34.69
2023-05-19T12:27:58.019Z,35.33
2023-05-19T12:28:56.616Z,35.61
2023-05-19T12:29:56.618Z,34.94
2023-05-19T12:30:56.581Z,34.11
2023-05-19T12:31:56.630Z,33.59
2023-05-19T12:32:56.723Z,32.69
2023-05-19T12:33:56.686Z,32.08
2023-05-19T12:34:56.699Z,31.93
2023-05-19T12:35:56.754Z,31.13
2023-05-19T12:36:56.791Z,31.95
2023-05-19T12:37:56.757Z,32.49
2023-05-19T12:38:56.779Z,32.84
2023-05-19T12:39:56.779Z,33.97
2023-05-19T12:40:56.774Z,35.31
2023-05-19T12:41:56.832Z,35.61
2023-05-19T12:42:56.904Z,35.61
2023-05-19T12:43:56.921Z,35.93
2023-05-19T12:44:56.960Z,36.02
2023-05-19T12:45:57.051Z,35.72
2023-05-19T12:46:57.066Z,36.32
2023-05-19T12:47:57.126Z,36.34
2023-05-19T12:48:57.140Z,36.78
2023-05-19T12:49:57.213Z,37.26
2023-05-19T12:50:57.144Z,36.63
2023-05-19T12:51:57.176Z,35.99
2023-05-19T12:52:57.213Z,34.96
2023-05-19T12:53:57.240Z,34.64
2023-05-19T12:54:57.344Z,34.15
2023-05-19T12:55:57.260Z,34.03
2023-05-19T12:56:57.290Z,33.30
2023-05-19T12:57:57.527Z,32.96
2023-05-19T12:58:57.354Z,32.23
2023-05-19T12:59:57.422Z,30.60
2023-05-19T13:00:57.572Z,31.63
2023-05-19T13:01:57.528Z,29.95
2023-05-19T13:02:57.608Z,30.55
2023-05-19T13:03:57.665Z,29.85
2023-05-19T13:04:57.579Z,30.16
2023-05-19T13:05:57.611Z,29.95
2023-05-19T13:06:57.588Z,30.41
2023-05-19T13:07:57.619Z,30.53
2023-05-19T13:08:57.658Z,31.57
2023-05-19T13:09:57.668Z,32.59